ADDS METAR Data INFO
IDs: Format: Raw Decoded Include TAF

Data at: 0347 UTC 20 Feb 2018

KRUG 200335Z AUTO 00000KT 7SM M16/M19 A3018 RMK AO2
KRUG 200315Z AUTO 00000KT 10SM M16/M20 A3018 RMK AO2
KRUG 200255Z AUTO 00000KT 10SM FEW023 SCT041 BKN050 M16/M20 A3017 RMK AO2
KRUG 200235Z AUTO 00000KT 7SM BKN022 BKN035 OVC042 M16/M20 A3018 RMK AO2
KRUG 200215Z AUTO 00000KT 6SM HZ OVC021 M16/M20 A3018 RMK AO2
KRUG 200155Z AUTO 27003KT 7SM -SN M16/M20 A3018 RMK AO2
KRUG 200135Z AUTO 00000KT 10SM SCT024 BKN030 OVC039 M16/M20 A3018 RMK AO2
KRUG 200115Z AUTO 24004KT 10SM BKN032 OVC038 M16/M21 A3020 RMK AO2
KRUG 200055Z AUTO 24004KT 10SM BKN036 BKN044 OVC055 M16/M21 A3020 RMK AO2
KRUG 200035Z AUTO 24004KT 10SM FEW046 OVC060 M16/M21 A3020 RMK AO2
KRUG 200015Z AUTO 26004KT 10SM OVC060 M16/M21 A3020 RMK AO2
KRUG 192355Z AUTO 26004KT 10SM SCT060 M16/M21 A3019 RMK AO2
KRUG 192335Z AUTO 27003KT 10SM CLR M16/M22 A3019 RMK AO2
KRUG 192315Z AUTO 00000KT 10SM CLR M16/M22 A3018 RMK AO2
KRUG 192255Z AUTO 25003KT 10SM CLR M15/M21 A3019 RMK AO2
KRUG 192235Z AUTO 00000KT 10SM CLR M16/M21 A3017 RMK AO2
KRUG 192215Z AUTO 00000KT 10SM CLR M16/M22 A3018 RMK AO2
KRUG 192155Z AUTO 00000KT 10SM CLR M15/M22 A3018 RMK AO2
KRUG 192135Z AUTO 24003KT 10SM CLR M15/M22 A3019 RMK AO2
KRUG 192115Z AUTO 00000KT 10SM CLR M15/M21 A3019 RMK AO2